Aviation Digital Data Service (ADDS)

Output produced by METARs form (0856 UTC 23 July 2019)
found at http://www.aviationweather.gov/metar/data/
 
METAR text: RJOM 230800Z 18007KT 9999 FEW030 SCT050 BKN090 29/24 Q1005
Conditions at: RJOM (MATSUYAMA AIRPOR, JP) observed 0800 UTC 23 July 2019
Temperature: 29.0°C (84°F)
Dewpoint: 24.0°C (75°F) [RH = 74%]
Pressure (altimeter): 29.68 inches Hg (1005.0 mb)
Winds: from the S (180 degrees) at 8 MPH (7 knots; 3.6 m/s)
Visibility: 6 or more miles (10+ km)
Ceiling: 9000 feet AGL
Clouds: few clouds at 3000 feet AGL
scattered clouds at 5000 feet AGL
broken clouds at 9000 feet AGL
Weather: no significant weather observed at this time

METAR text: RJOM 230700Z 19005KT 9999 FEW025 SCT050 BKN070 28/24 Q1006
Conditions at: RJOM (MATSUYAMA AIRPOR, JP) observed 0700 UTC 23 July 2019
Temperature: 28.0°C (82°F)
Dewpoint: 24.0°C (75°F) [RH = 79%]
Pressure (altimeter): 29.70 inches Hg (1006.0 mb)
Winds: from the S (190 degrees) at 6 MPH (5 knots; 2.6 m/s)
Visibility: 6 or more miles (10+ km)
Ceiling: 7000 feet AGL
Clouds: few clouds at 2500 feet AGL
scattered clouds at 5000 feet AGL
broken clouds at 7000 feet AGL
Weather: no significant weather observed at this time

METAR text: RJOM 230600Z 20005KT 180V280 9999 FEW025 SCT045 BKN070 28/24 Q1006
Conditions at: RJOM (MATSUYAMA AIRPOR, JP) observed 0600 UTC 23 July 2019
Temperature: 28.0°C (82°F)
Dewpoint: 24.0°C (75°F) [RH = 79%]
Pressure (altimeter): 29.70 inches Hg (1006.0 mb)
Winds: from the SSW (200 degrees) at 6 MPH (5 knots; 2.6 m/s)
Visibility: 6 or more miles (10+ km)
Ceiling: 7000 feet AGL
Clouds: few clouds at 2500 feet AGL
scattered clouds at 4500 feet AGL
broken clouds at 7000 feet AGL
Weather: no significant weather observed at this time

METAR text: RJOM 230500Z 21006KT 170V230 9999 FEW025 SCT035 BKN050 28/24 Q1007
Conditions at: RJOM (MATSUYAMA AIRPOR, JP) observed 0500 UTC 23 July 2019
Temperature: 28.0°C (82°F)
Dewpoint: 24.0°C (75°F) [RH = 79%]
Pressure (altimeter): 29.73 inches Hg (1007.0 mb)
Winds: from the SSW (210 degrees) at 7 MPH (6 knots; 3.1 m/s)
Visibility: 6 or more miles (10+ km)
Ceiling: 5000 feet AGL
Clouds: few clouds at 2500 feet AGL
scattered clouds at 3500 feet AGL
broken clouds at 5000 feet AGL
Weather: no significant weather observed at this time

METAR text: RJOM 230400Z 21004KT 9999 FEW025 SCT035 BKN050 28/23 Q1007
Conditions at: RJOM (MATSUYAMA AIRPOR, JP) observed 0400 UTC 23 July 2019
Temperature: 28.0°C (82°F)
Dewpoint: 23.0°C (73°F) [RH = 74%]
Pressure (altimeter): 29.73 inches Hg (1007.0 mb)
Winds: from the SSW (210 degrees) at 5 MPH (4 knots; 2.1 m/s)
Visibility: 6 or more miles (10+ km)
Ceiling: 5000 feet AGL
Clouds: few clouds at 2500 feet AGL
scattered clouds at 3500 feet AGL
broken clouds at 5000 feet AGL
Weather: no significant weather observed at this time

METAR text: RJOM 230300Z 20005KT 160V260 9999 FEW020 BKN025 BKN045 27/24 Q1007
Conditions at: RJOM (MATSUYAMA AIRPOR, JP) observed 0300 UTC 23 July 2019
Temperature: 27.0°C (81°F)
Dewpoint: 24.0°C (75°F) [RH = 84%]
Pressure (altimeter): 29.73 inches Hg (1007.0 mb)
Winds: from the SSW (200 degrees) at 6 MPH (5 knots; 2.6 m/s)
Visibility: 6 or more miles (10+ km)
Ceiling: 2500 feet AGL
Clouds: few clouds at 2000 feet AGL
broken clouds at 2500 feet AGL
broken clouds at 4500 feet AGL
Weather: no significant weather observed at this time

METAR text: RJOM 230200Z 21006KT 160V250 9999 FEW025 SCT030 BKN050 27/23 Q1007
Conditions at: RJOM (MATSUYAMA AIRPOR, JP) observed 0200 UTC 23 July 2019
Temperature: 27.0°C (81°F)
Dewpoint: 23.0°C (73°F) [RH = 79%]
Pressure (altimeter): 29.73 inches Hg (1007.0 mb)
Winds: from the SSW (210 degrees) at 7 MPH (6 knots; 3.1 m/s)
Visibility: 6 or more miles (10+ km)
Ceiling: 5000 feet AGL
Clouds: few clouds at 2500 feet AGL
scattered clouds at 3000 feet AGL
broken clouds at 5000 feet AGL
Weather: no significant weather observed at this time

METAR text: RJOM 230100Z 23003KT 200V260 9999 FEW025 BKN045 BKN070 27/24 Q1008
Conditions at: RJOM (MATSUYAMA AIRPOR, JP) observed 0100 UTC 23 July 2019
Temperature: 27.0°C (81°F)
Dewpoint: 24.0°C (75°F) [RH = 84%]
Pressure (altimeter): 29.76 inches Hg (1008.0 mb)
Winds: from the SW (230 degrees) at 3 MPH (3 knots; 1.5 m/s)
Visibility: 6 or more miles (10+ km)
Ceiling: 4500 feet AGL
Clouds: few clouds at 2500 feet AGL
broken clouds at 4500 feet AGL
broken clouds at 7000 feet AGL
Weather: no significant weather observed at this time

METAR text: RJOM 230000Z 23003KT 200V260 9999 FEW025 BKN030 BKN045 26/24 Q1008
Conditions at: RJOM (MATSUYAMA AIRPOR, JP) observed 0000 UTC 23 July 2019
Temperature: 26.0°C (79°F)
Dewpoint: 24.0°C (75°F) [RH = 89%]
Pressure (altimeter): 29.76 inches Hg (1008.0 mb)
Winds: from the SW (230 degrees) at 3 MPH (3 knots; 1.5 m/s)
Visibility: 6 or more miles (10+ km)
Ceiling: 3000 feet AGL
Clouds: few clouds at 2500 feet AGL
broken clouds at 3000 feet AGL
broken clouds at 4500 feet AGL
Weather: no significant weather observed at this time

METAR text: RJOM 222300Z 18005KT 140V210 9999 FEW025 SCT035 BKN050 27/25 Q1008
Conditions at: RJOM (MATSUYAMA AIRPOR, JP) observed 2300 UTC 22 July 2019
Temperature: 27.0°C (81°F)
Dewpoint: 25.0°C (77°F) [RH = 89%]
Pressure (altimeter): 29.76 inches Hg (1008.0 mb)
Winds: from the S (180 degrees) at 6 MPH (5 knots; 2.6 m/s)
Visibility: 6 or more miles (10+ km)
Ceiling: 5000 feet AGL
Clouds: few clouds at 2500 feet AGL
scattered clouds at 3500 feet AGL
broken clouds at 5000 feet AGL
Weather: no significant weather observed at this time

METAR text: RJOM 222200Z 13004KT 090V170 9999 FEW020 BKN050 26/24 Q1008
Conditions at: RJOM (MATSUYAMA AIRPOR, JP) observed 2200 UTC 22 July 2019
Temperature: 26.0°C (79°F)
Dewpoint: 24.0°C (75°F) [RH = 89%]
Pressure (altimeter): 29.76 inches Hg (1008.0 mb)
Winds: from the SE (130 degrees) at 5 MPH (4 knots; 2.1 m/s)
Visibility: 6 or more miles (10+ km)
Ceiling: 5000 feet AGL
Clouds: few clouds at 2000 feet AGL
broken clouds at 5000 feet AGL
Weather: no significant weather observed at this time

METAR text: RJOM 222110Z 14006KT 9999 FEW020 BKN045 25/24 Q1008 RMK 1CU020 6SC045 A2977
Conditions at: RJOM (MATSUYAMA AIRPOR, JP) observed 2110 UTC 22 July 2019
Temperature: 25.0°C (77°F)
Dewpoint: 24.0°C (75°F) [RH = 94%]
Pressure (altimeter): 29.76 inches Hg (1008.0 mb)
Winds: from the SE (140 degrees) at 7 MPH (6 knots; 3.1 m/s)
Visibility: 6 or more miles (10+ km)
Ceiling: 4500 feet AGL
Clouds: few clouds at 2000 feet AGL
broken clouds at 4500 feet AGL
Weather: no significant weather observed at this time

METAR text: RJOM 221200Z 14005KT 9999 -SHRA FEW030 SCT040 BKN060 27/25 Q1008
Conditions at: RJOM (MATSUYAMA AIRPOR, JP) observed 1200 UTC 22 July 2019
Temperature: 27.0°C (81°F)
Dewpoint: 25.0°C (77°F) [RH = 89%]
Pressure (altimeter): 29.76 inches Hg (1008.0 mb)
Winds: from the SE (140 degrees) at 6 MPH (5 knots; 2.6 m/s)
Visibility: 6 or more miles (10+ km)
Ceiling: 6000 feet AGL
Clouds: few clouds at 3000 feet AGL
scattered clouds at 4000 feet AGL
broken clouds at 6000 feet AGL
Weather: -SHRA  (light rain showers)

METAR text: RJOM 221100Z VRB02KT 9999 FEW030 SCT040 BKN050 27/24 Q1008
Conditions at: RJOM (MATSUYAMA AIRPOR, JP) observed 1100 UTC 22 July 2019
Temperature: 27.0°C (81°F)
Dewpoint: 24.0°C (75°F) [RH = 84%]
Pressure (altimeter): 29.76 inches Hg (1008.0 mb)
Winds: variable direction winds at 2 MPH (2 knots; 1.0 m/s)
Visibility: 6 or more miles (10+ km)
Ceiling: 5000 feet AGL
Clouds: few clouds at 3000 feet AGL
scattered clouds at 4000 feet AGL
broken clouds at 5000 feet AGL
Weather: no significant weather observed at this time

METAR text: RJOM 221000Z VRB01KT 9999 FEW015 SCT035 BKN070 27/24 Q1007
Conditions at: RJOM (MATSUYAMA AIRPOR, JP) observed 1000 UTC 22 July 2019
Temperature: 27.0°C (81°F)
Dewpoint: 24.0°C (75°F) [RH = 84%]
Pressure (altimeter): 29.73 inches Hg (1007.0 mb)
Winds: variable direction winds at 1 MPH (1 knots; 0.5 m/s)
Visibility: 6 or more miles (10+ km)
Ceiling: 7000 feet AGL
Clouds: few clouds at 1500 feet AGL
scattered clouds at 3500 feet AGL
broken clouds at 7000 feet AGL
Weather: no significant weather observed at this time

METAR text: RJOM 220900Z 20004KT 9999 FEW015 SCT035 BKN060 27/24 Q1007
Conditions at: RJOM (MATSUYAMA AIRPOR, JP) observed 0900 UTC 22 July 2019
Temperature: 27.0°C (81°F)
Dewpoint: 24.0°C (75°F) [RH = 84%]
Pressure (altimeter): 29.73 inches Hg (1007.0 mb)
Winds: from the SSW (200 degrees) at 5 MPH (4 knots; 2.1 m/s)
Visibility: 6 or more miles (10+ km)
Ceiling: 6000 feet AGL
Clouds: few clouds at 1500 feet AGL
scattered clouds at 3500 feet AGL
broken clouds at 6000 feet AGL
Weather: no significant weather observed at this time

METAR text: RJOM 220800Z 21007KT 180V250 9999 FEW020 SCT035 BKN070 26/24 Q1007
Conditions at: RJOM (MATSUYAMA AIRPOR, JP) observed 0800 UTC 22 July 2019
Temperature: 26.0°C (79°F)
Dewpoint: 24.0°C (75°F) [RH = 89%]
Pressure (altimeter): 29.73 inches Hg (1007.0 mb)
Winds: from the SSW (210 degrees) at 8 MPH (7 knots; 3.6 m/s)
Visibility: 6 or more miles (10+ km)
Ceiling: 7000 feet AGL
Clouds: few clouds at 2000 feet AGL
scattered clouds at 3500 feet AGL
broken clouds at 7000 feet AGL
Weather: no significant weather observed at this time

METAR text: RJOM 220700Z VRB02KT 9999 FEW020 SCT035 BKN060 26/24 Q1007
Conditions at: RJOM (MATSUYAMA AIRPOR, JP) observed 0700 UTC 22 July 2019
Temperature: 26.0°C (79°F)
Dewpoint: 24.0°C (75°F) [RH = 89%]
Pressure (altimeter): 29.73 inches Hg (1007.0 mb)
Winds: variable direction winds at 2 MPH (2 knots; 1.0 m/s)
Visibility: 6 or more miles (10+ km)
Ceiling: 6000 feet AGL
Clouds: few clouds at 2000 feet AGL
scattered clouds at 3500 feet AGL
broken clouds at 6000 feet AGL
Weather: no significant weather observed at this time

METAR text: RJOM 220600Z 34005KT 310V030 9999 FEW008 SCT090 BKN/// 26/24 Q1008
Conditions at: RJOM (MATSUYAMA AIRPOR, JP) observed 0600 UTC 22 July 2019
Temperature: 26.0°C (79°F)
Dewpoint: 24.0°C (75°F) [RH = 89%]
Pressure (altimeter): 29.76 inches Hg (1008.0 mb)
Winds: from the NNW (340 degrees) at 6 MPH (5 knots; 2.6 m/s)
Visibility: 6 or more miles (10+ km)
Ceiling: at least 12,000 feet AGL
Clouds: few clouds at 800 feet AGL
scattered clouds at 9000 feet AGL
Weather: no significant weather observed at this time

METAR text: RJOM 220500Z VRB02KT 9999 VCSH FEW010 BKN140 26/25 Q1008
Conditions at: RJOM (MATSUYAMA AIRPOR, JP) observed 0500 UTC 22 July 2019
Temperature: 26.0°C (79°F)
Dewpoint: 25.0°C (77°F) [RH = 94%]
Pressure (altimeter): 29.76 inches Hg (1008.0 mb)
Winds: variable direction winds at 2 MPH (2 knots; 1.0 m/s)
Visibility: 6 or more miles (10+ km)
Ceiling: 14000 feet AGL
Clouds: few clouds at 1000 feet AGL
broken clouds at 14000 feet AGL
Weather: VCSH  (showers in vicinity)

METAR text: RJOM 220400Z 23008KT 9999 -SHRA FEW007 SCT035 BKN080 25/24 Q1009
Conditions at: RJOM (MATSUYAMA AIRPOR, JP) observed 0400 UTC 22 July 2019
Temperature: 25.0°C (77°F)
Dewpoint: 24.0°C (75°F) [RH = 94%]
Pressure (altimeter): 29.79 inches Hg (1009.0 mb)
Winds: from the SW (230 degrees) at 9 MPH (8 knots; 4.1 m/s)
Visibility: 6 or more miles (10+ km)
Ceiling: 8000 feet AGL
Clouds: few clouds at 700 feet AGL
scattered clouds at 3500 feet AGL
broken clouds at 8000 feet AGL
Weather: -SHRA  (light rain showers)

METAR text: RJOM 220300Z 23015KT 8000 -SHRA FEW007 BKN020 BKN040 25/24 Q1009
Conditions at: RJOM (MATSUYAMA AIRPOR, JP) observed 0300 UTC 22 July 2019
Temperature: 25.0°C (77°F)
Dewpoint: 24.0°C (75°F) [RH = 94%]
Pressure (altimeter): 29.79 inches Hg (1009.0 mb)
Winds: from the SW (230 degrees) at 17 MPH (15 knots; 7.7 m/s)
Visibility: 5 miles ( 8 km)
Ceiling: 2000 feet AGL
Clouds: few clouds at 700 feet AGL
broken clouds at 2000 feet AGL
broken clouds at 4000 feet AGL
Weather: -SHRA  (light rain showers)

METAR text: RJOM 220244Z 24010KT 190V270 9999 -SHRA FEW007 BKN020 BKN035 25/24 Q1009 RMK 1ST007 5CU020 7CU035 A2981
Conditions at: RJOM (MATSUYAMA AIRPOR, JP) observed 0244 UTC 22 July 2019
Temperature: 25.0°C (77°F)
Dewpoint: 24.0°C (75°F) [RH = 94%]
Pressure (altimeter): 29.79 inches Hg (1009.0 mb)
Winds: from the WSW (240 degrees) at 12 MPH (10 knots; 5.1 m/s)
Visibility: 6 or more miles (10+ km)
Ceiling: 2000 feet AGL
Clouds: few clouds at 700 feet AGL
broken clouds at 2000 feet AGL
broken clouds at 3500 feet AGL
Weather: -SHRA  (light rain showers)

METAR text: RJOM 220200Z 34004KT 290V020 9999 FEW010 SCT050 BKN/// 26/25 Q1009
Conditions at: RJOM (MATSUYAMA AIRPOR, JP) observed 0200 UTC 22 July 2019
Temperature: 26.0°C (79°F)
Dewpoint: 25.0°C (77°F) [RH = 94%]
Pressure (altimeter): 29.79 inches Hg (1009.0 mb)
Winds: from the NNW (340 degrees) at 5 MPH (4 knots; 2.1 m/s)
Visibility: 6 or more miles (10+ km)
Ceiling: at least 12,000 feet AGL
Clouds: few clouds at 1000 feet AGL
scattered clouds at 5000 feet AGL
Weather: no significant weather observed at this time

METAR text: RJOM 220100Z VRB02KT 8000 SCT003 BKN015 BKN045 24/24 Q1009
Conditions at: RJOM (MATSUYAMA AIRPOR, JP) observed 0100 UTC 22 July 2019
Temperature: 24.0°C (75°F)
Dewpoint: 24.0°C (75°F) [RH = 100%]
Pressure (altimeter): 29.79 inches Hg (1009.0 mb)
Winds: variable direction winds at 2 MPH (2 knots; 1.0 m/s)
Visibility: 5 miles ( 8 km)
Ceiling: 1500 feet AGL
Clouds: scattered clouds at 300 feet AGL
broken clouds at 1500 feet AGL
broken clouds at 4500 feet AGL
Weather: no significant weather observed at this time

METAR text: RJOM 220036Z 24003KT 190V310 8000 -SHRA FEW003 SCT015 BKN025 24/24 Q1009 RMK 1ST003 4CU015 6CU025 A2980
Conditions at: RJOM (MATSUYAMA AIRPOR, JP) observed 0036 UTC 22 July 2019
Temperature: 24.0°C (75°F)
Dewpoint: 24.0°C (75°F) [RH = 100%]
Pressure (altimeter): 29.79 inches Hg (1009.0 mb)
Winds: from the WSW (240 degrees) at 3 MPH (3 knots; 1.5 m/s)
Visibility: 5 miles ( 8 km)
Ceiling: 2500 feet AGL
Clouds: few clouds at 300 feet AGL
scattered clouds at 1500 feet AGL
broken clouds at 2500 feet AGL
Weather: -SHRA  (light rain showers)

METAR text: RJOM 220027Z 24004KT 200V270 3500 SHRA BR FEW003 SCT015 BKN030 24/24 Q1009 RMK 1ST003 4CU015 6CU030 A2980
Conditions at: RJOM (MATSUYAMA AIRPOR, JP) observed 0027 UTC 22 July 2019
Temperature: 24.0°C (75°F)
Dewpoint: 24.0°C (75°F) [RH = 100%]
Pressure (altimeter): 29.79 inches Hg (1009.0 mb)
Winds: from the WSW (240 degrees) at 5 MPH (4 knots; 2.1 m/s)
Visibility: 2.17 miles (3.49 km)
Ceiling: 3000 feet AGL
Clouds: few clouds at 300 feet AGL
scattered clouds at 1500 feet AGL
broken clouds at 3000 feet AGL
Weather: SHRA BR  (rain showers, mist)

METAR text: RJOM 220014Z 27004KT 230V300 3000 -SHRA BR FEW005 SCT015 BKN030 24/24 Q1009 RMK 1ST005 4CU015 6CU030 A2980
Conditions at: RJOM (MATSUYAMA AIRPOR, JP) observed 0014 UTC 22 July 2019
Temperature: 24.0°C (75°F)
Dewpoint: 24.0°C (75°F) [RH = 100%]
Pressure (altimeter): 29.79 inches Hg (1009.0 mb)
Winds: from the W (270 degrees) at 5 MPH (4 knots; 2.1 m/s)
Visibility: 1.86 miles (2.99 km)
Ceiling: 3000 feet AGL
Clouds: few clouds at 500 feet AGL
scattered clouds at 1500 feet AGL
broken clouds at 3000 feet AGL
Weather: -SHRA BR  (light rain showers, mist)

METAR text: RJOM 220000Z 28003KT 210V330 6000 -SHRA FEW005 SCT020 BKN040 25/24 Q1009
Conditions at: RJOM (MATSUYAMA AIRPOR, JP) observed 0000 UTC 22 July 2019
Temperature: 25.0°C (77°F)
Dewpoint: 24.0°C (75°F) [RH = 94%]
Pressure (altimeter): 29.79 inches Hg (1009.0 mb)
Winds: from the W (280 degrees) at 3 MPH (3 knots; 1.5 m/s)
Visibility: 4 miles ( 6 km)
Ceiling: 4000 feet AGL
Clouds: few clouds at 500 feet AGL
scattered clouds at 2000 feet AGL
broken clouds at 4000 feet AGL
Weather: -SHRA  (light rain showers)

METAR text: RJOM 212300Z 01003KT 330V040 6000 -SHRA FEW007 SCT020 BKN035 25/25 Q1009
Conditions at: RJOM (MATSUYAMA AIRPOR, JP) observed 2300 UTC 21 July 2019
Temperature: 25.0°C (77°F)
Dewpoint: 25.0°C (77°F) [RH = 100%]
Pressure (altimeter): 29.79 inches Hg (1009.0 mb)
Winds: from the N (10 degrees) at 3 MPH (3 knots; 1.5 m/s)
Visibility: 4 miles ( 6 km)
Ceiling: 3500 feet AGL
Clouds: few clouds at 700 feet AGL
scattered clouds at 2000 feet AGL
broken clouds at 3500 feet AGL
Weather: -SHRA  (light rain showers)

METAR text: RJOM 212200Z 36006KT 9999 -SHRA FEW020 SCT035 BKN050 25/24 Q1009
Conditions at: RJOM (MATSUYAMA AIRPOR, JP) observed 2200 UTC 21 July 2019
Temperature: 25.0°C (77°F)
Dewpoint: 24.0°C (75°F) [RH = 94%]
Pressure (altimeter): 29.79 inches Hg (1009.0 mb)
Winds: from the N (360 degrees) at 7 MPH (6 knots; 3.1 m/s)
Visibility: 6 or more miles (10+ km)
Ceiling: 5000 feet AGL
Clouds: few clouds at 2000 feet AGL
scattered clouds at 3500 feet AGL
broken clouds at 5000 feet AGL
Weather: -SHRA  (light rain showers)

METAR text: RJOM 212110Z 35003KT 9999 FEW025 SCT035 BKN050 24/24 Q1008 RMK 1CU025 3CU035 5SC050 A2979
Conditions at: RJOM (MATSUYAMA AIRPOR, JP) observed 2110 UTC 21 July 2019
Temperature: 24.0°C (75°F)
Dewpoint: 24.0°C (75°F) [RH = 100%]
Pressure (altimeter): 29.76 inches Hg (1008.0 mb)
Winds: from the N (350 degrees) at 3 MPH (3 knots; 1.5 m/s)
Visibility: 6 or more miles (10+ km)
Ceiling: 5000 feet AGL
Clouds: few clouds at 2500 feet AGL
scattered clouds at 3500 feet AGL
broken clouds at 5000 feet AGL
Weather: no significant weather observed at this time

Forecast for: RJOM (MATSUYAMA AIRPOR, JP)
Text: TAF RJOM 230506Z 2306/2412 20006KT 9999 FEW025 BKN045
Forecast period: 0600 UTC 23 July 2019 to 0000 UTC 24 July 2019
Forecast type: FROM: standard forecast or significant change
Winds: from the SSW (200 degrees) at 7 MPH (6 knots; 3.1 m/s)
Visibility: 6 or more miles 10+ km)
Ceiling: 4500 feet AGL
Clouds: few clouds at 2500 feet AGL
broken clouds at 4500 feet AGL
Weather: no significant weather forecast for this period
Text: BECMG 2400/2403 24005KT
Forecast period: 0000 to 0600 UTC 24 July 2019
Forecast type: BECOMING: Conditions expected to become as follows by 0300 UTC 24 July 2019
Winds: from the WSW (240 degrees) at 6 MPH (5 knots; 2.6 m/s)
Visibility: 6 or more miles 10+ km)
Ceiling: 4500 feet AGL
Clouds: few clouds at 2500 feet AGL
broken clouds at 4500 feet AGL
Weather: no significant weather forecast for this period
Text: BECMG 2406/2409 20005KT
Forecast period: 0600 to 1200 UTC 24 July 2019
Forecast type: BECOMING: Conditions expected to become as follows by 0900 UTC 24 July 2019
Winds: from the SSW (200 degrees) at 6 MPH (5 knots; 2.6 m/s)
Visibility: 6 or more miles 10+ km)
Ceiling: 4500 feet AGL
Clouds: few clouds at 2500 feet AGL
broken clouds at 4500 feet AGL
Weather: no significant weather forecast for this period